Time;durP1;ratioP1;P1;durP2;ratioP2;P2;SDS_P1;SDS_P2;PMS_P1;PMS_P2;Temp;Humidity;BMP_temperature;BMP_pressure;BME280_temperature;BME280_humidity;BME280_pressure;Samples;Min_cycle;Max_cycle;Signal;HPM_P1;HPM_P2
2021/11/11 00:00:13;;;;;;;56.80;33.90;;;;;;;3.40;79.25;100960.82;103064;1317;108914;-64
2021/11/11 00:03:18;;;;;;;60.30;35.20;;;;;;;3.40;79.41;100955.48;102960;1314;140073;-64
2021/11/11 00:06:04;;;;;;;58.10;34.10;;;;;;;3.40;79.31;100949.13;103351;1315;94868;-64
2021/11/11 00:08:51;;;;;;;55.50;32.30;;;;;;;3.42;79.23;100950.38;103898;1317;94765;-64
2021/11/11 00:11:39;;;;;;;58.70;35.60;;;;;;;3.46;79.28;100954.34;103763;1312;138082;-65
2021/11/11 00:14:25;;;;;;;56.30;33.80;;;;;;;3.50;79.40;100956.27;103080;1313;108958;-63
2021/11/11 00:17:12;;;;;;;60.00;36.10;;;;;;;3.53;79.30;100949.40;103499;1312;270240;-63
2021/11/11 00:19:59;;;;;;;59.30;34.50;;;;;;;3.55;79.26;100944.26;103859;1314;94459;-63
2021/11/11 00:22:47;;;;;;;59.60;35.70;;;;;;;3.56;79.19;100944.61;103649;1313;137552;-64
2021/11/11 00:25:34;;;;;;;56.10;34.50;;;;;;;3.56;79.24;100953.38;103826;1313;111226;-64
2021/11/11 00:28:21;;;;;;;57.10;34.20;;;;;;;3.55;79.31;100947.53;103784;1312;139990;-64
2021/11/11 00:31:08;;;;;;;55.30;33.40;;;;;;;3.55;79.06;100939.96;103741;1314;107971;-64
2021/11/11 00:33:55;;;;;;;55.70;32.60;;;;;;;3.55;79.22;100936.17;103428;1311;139589;-64
2021/11/11 00:36:42;;;;;;;53.60;33.80;;;;;;;3.55;79.16;100938.76;102985;1316;96127;-64
2021/11/11 00:39:29;;;;;;;;;;;;;;;3.57;79.29;100931.72;103746;1311;139894;-63
2021/11/11 00:42:17;;;;;;;52.60;31.60;;;;;;;3.58;79.19;100927.27;103695;1312;108486;-63
2021/11/11 00:45:05;;;;;;;57.50;32.70;;;;;;;3.61;78.83;100929.89;103844;1313;108779;-64
2021/11/11 00:47:51;;;;;;;;;;;;;;;3.62;79.02;100934.70;103711;1312;138131;-64
2021/11/11 00:50:39;;;;;;;52.60;31.60;;;;;;;3.61;78.91;100934.36;103801;1312;94544;-64
2021/11/11 00:53:25;;;;;;;;;;;;;;;3.60;79.20;100935.89;103636;1309;137580;-64
2021/11/11 00:56:13;;;;;;;52.70;31.40;;;;;;;3.61;79.12;100931.95;103565;1313;107918;-64
2021/11/11 00:59:02;;;;;;;52.70;30.40;;;;;;;3.60;79.07;100935.22;103550;1312;138263;-64
2021/11/11 01:01:49;;;;;;;49.10;29.70;;;;;;;3.64;79.08;100931.44;103644;1313;95264;-64
2021/11/11 01:04:36;;;;;;;;;;;;;;;3.68;79.09;100935.07;102366;1312;138435;-63
2021/11/11 01:07:24;;;;;;;52.00;30.50;;;;;;;3.71;79.04;100938.19;103869;1313;111474;-64
2021/11/11 01:10:14;;;;;;;53.70;30.50;;;;;;;3.79;78.95;100932.40;103622;1315;141828;-64
2021/11/11 01:13:01;;;;;;;48.30;28.80;;;;;;;3.85;78.79;100926.25;103799;1316;109392;-64
2021/11/11 01:15:47;;;;;;;49.10;29.90;;;;;;;3.89;78.83;100929.53;103693;1313;139567;-64
2021/11/11 01:18:34;;;;;;;50.70;29.40;;;;;;;3.97;78.93;100931.30;103459;1317;94794;-64
2021/11/11 01:21:21;;;;;;;48.50;29.10;;;;;;;4.03;78.60;100923.09;103836;1313;110096;-64
2021/11/11 01:24:08;;;;;;;47.30;28.20;;;;;;;4.05;78.36;100925.33;103510;1313;137623;-63
2021/11/11 01:26:55;;;;;;;50.80;28.70;;;;;;;4.08;78.13;100924.47;102886;1313;107888;-64
2021/11/11 01:29:42;;;;;;;46.80;27.90;;;;;;;4.12;78.22;100926.90;102755;1314;138175;-64
2021/11/11 01:32:29;;;;;;;42.10;26.20;;;;;;;4.15;78.34;100922.80;103674;1315;94755;-64
2021/11/11 01:35:16;;;;;;;44.00;28.80;;;;;;;4.16;77.76;100923.15;103424;1314;138344;-64
2021/11/11 01:38:03;;;;;;;43.50;26.40;;;;;;;4.19;77.67;100916.63;103651;1312;108861;-64
2021/11/11 01:40:51;;;;;;;45.50;27.80;;;;;;;4.20;77.96;100918.35;102532;1322;138331;-64
2021/11/11 01:43:40;;;;;;;47.20;29.30;;;;;;;4.18;77.79;100912.32;103594;1315;94797;-63
2021/11/11 01:46:33;;;;;;;49.80;29.50;;;;;;;4.17;77.90;100922.64;103149;1316;138348;-64
2021/11/11 01:49:21;;;;;;;45.30;27.50;;;;;;;4.18;77.77;100927.98;103693;1313;111152;-64
2021/11/11 01:52:09;;;;;;;;;;;;;;;4.18;77.52;100925.40;103660;1309;139810;-63
2021/11/11 01:54:56;;;;;;;45.10;28.10;;;;;;;4.18;77.73;100927.80;103519;1314;107926;-63
2021/11/11 01:57:43;;;;;;;;;;;;;;;4.21;77.67;100933.33;103660;1315;94707;-62
2021/11/11 02:00:37;;;;;;;43.80;27.00;;;;;;;4.24;77.76;100927.65;102676;1313;96516;-65
2021/11/11 02:03:25;;;;;;;46.20;27.80;;;;;;;4.31;77.70;100927.86;103435;1316;111072;-64
2021/11/11 02:06:22;;;;;;;50.40;28.60;;;;;;;4.33;77.31;100931.15;103572;1315;139406;-65
2021/11/11 02:09:16;;;;;;;47.50;27.20;;;;;;;4.37;77.46;100931.67;102540;1314;110043;-63
2021/11/11 02:12:14;;;;;;;47.60;28.70;;;;;;;4.36;77.16;100937.19;102252;1313;138419;-64
2021/11/11 02:15:10;;;;;;;44.70;27.90;;;;;;;4.31;76.96;100934.05;102364;1316;96496;-62
2021/11/11 02:17:58;;;;;;;45.50;28.30;;;;;;;4.21;77.01;100934.19;102137;1316;139431;-63
2021/11/11 02:20:48;;;;;;;44.30;26.60;;;;;;;4.14;76.93;100929.34;102256;1316;109164;-63
2021/11/11 02:23:47;;;;;;;45.10;26.10;;;;;;;4.06;76.93;100927.56;102351;1316;139821;-63
2021/11/11 02:26:53;;;;;;;47.40;27.40;;;;;;;4.01;77.14;100927.38;102321;1316;96507;-63
2021/11/11 02:29:43;;;;;;;48.10;28.00;;;;;;;3.99;77.38;100924.61;103777;1316;138913;-63
2021/11/11 02:32:34;;;;;;;45.00;26.60;;;;;;;3.99;77.26;100920.83;103577;1314;110269;-63
2021/11/11 02:35:22;;;;;;;45.10;26.70;;;;;;;3.97;77.39;100918.23;103206;1317;138140;-63
2021/11/11 02:38:11;;;;;;;44.40;27.30;;;;;;;3.97;77.47;100921.16;104580;1316;108589;-63
2021/11/11 02:41:02;;;;;;;48.60;28.50;;;;;;;3.97;77.49;100934.23;103667;1316;137834;-63
2021/11/11 02:43:49;;;;;;;46.40;26.90;;;;;;;3.99;77.60;100940.10;103357;1317;96479;-63
2021/11/11 02:46:38;;;;;;;46.50;25.90;;;;;;;3.97;77.61;100941.82;104570;1316;139590;-63
2021/11/11 02:49:33;;;;;;;;;;;;;;;3.97;77.35;100938.89;104645;1313;108898;-63
2021/11/11 02:52:21;;;;;;;43.60;26.30;;;;;;;3.95;77.45;100936.29;103382;1317;124613;-63
2021/11/11 02:55:09;;;;;;;46.90;27.00;;;;;;;3.97;77.58;100924.95;103308;1316;96517;-63
2021/11/11 02:57:57;;;;;;;42.90;26.00;;;;;;;4.03;77.60;100926.52;104638;1312;94623;-63
2021/11/11 03:00:55;;;;;;;44.20;27.20;;;;;;;4.09;77.42;100921.38;104568;1316;137833;-63
2021/11/11 03:03:44;;;;;;;43.90;26.90;;;;;;;4.11;77.55;100913.64;104693;1316;109188;-64
2021/11/11 03:06:31;;;;;;;45.60;28.50;;;;;;;4.08;77.06;100913.11;104494;1315;137471;-63
2021/11/11 03:09:18;;;;;;;45.10;27.70;;;;;;;3.99;77.06;100917.21;103330;1316;96602;-63
2021/11/11 03:12:07;;;;;;;42.40;26.20;;;;;;;3.91;76.85;100918.19;103311;1319;138094;-63
2021/11/11 03:14:53;;;;;;;43.40;25.80;;;;;;;3.88;77.11;100925.23;104272;1320;111170;-63
2021/11/11 03:17:41;;;;;;;40.50;24.80;;;;;;;3.87;77.10;100929.34;104679;1316;138345;-63
2021/11/11 03:20:28;;;;;;;41.50;25.20;;;;;;;3.93;77.28;100929.04;103609;1318;108821;-64
2021/11/11 03:23:15;;;;;;;45.40;26.10;;;;;;;3.96;77.31;100928.04;104536;1316;139717;-63
2021/11/11 03:26:02;;;;;;;46.10;26.10;;;;;;;3.95;77.23;100928.37;104629;1318;94499;-63
2021/11/11 03:28:54;;;;;;;45.10;26.60;;;;;;;3.96;77.22;100926.67;104558;1316;138280;-64
2021/11/11 03:31:48;;;;;;;44.60;26.90;;;;;;;3.92;77.04;100923.35;104650;1314;108821;-64
2021/11/11 03:34:37;;;;;;;43.20;27.20;;;;;;;3.86;77.04;100915.75;103854;1313;138075;-64
2021/11/11 03:37:25;;;;;;;40.70;25.40;;;;;;;3.80;76.95;100915.73;103313;1314;96582;-63
2021/11/11 03:40:16;;;;;;;39.00;24.60;;;;;;;3.73;77.01;100913.42;103387;1319;96555;-63
2021/11/11 03:43:04;;;;;;;44.40;26.40;;;;;;;3.70;77.30;100911.01;103232;1313;138577;-64
2021/11/11 03:45:58;;;;;;;42.20;25.10;;;;;;;3.72;77.48;100908.09;103345;1313;109140;-64
2021/11/11 03:48:45;;;;;;;41.10;24.70;;;;;;;3.74;77.61;100903.29;103208;1318;137759;-64
2021/11/11 03:51:33;;;;;;;40.70;25.80;;;;;;;3.77;77.58;100901.78;103355;1314;96519;-64
2021/11/11 03:54:22;;;;;;;42.00;25.80;;;;;;;3.81;77.76;100904.38;103507;1320;138289;-64
2021/11/11 03:57:09;;;;;;;45.20;26.80;;;;;;;3.84;77.58;100909.38;103236;1314;111064;-64
2021/11/11 03:59:56;;;;;;;48.20;27.20;;;;;;;3.84;77.42;100905.60;103254;1313;137984;-64
2021/11/11 04:02:44;;;;;;;43.20;26.20;;;;;;;3.84;77.33;100906.45;104029;1317;108770;-63
2021/11/11 04:05:32;;;;;;;43.70;26.00;;;;;;;3.84;77.35;100899.75;104458;1316;139772;-63
2021/11/11 04:08:20;;;;;;;43.40;25.20;;;;;;;3.87;77.42;100893.40;104633;1316;94642;-63
2021/11/11 04:11:08;;;;;;;44.90;26.10;;;;;;;3.91;77.39;100895.98;104046;1317;138082;-64
2021/11/11 04:13:57;;;;;;;42.80;26.00;;;;;;;3.95;77.15;100896.38;103819;1316;108538;-64
2021/11/11 04:16:45;;;;;;;40.50;25.40;;;;;;;3.97;77.39;100899.83;104528;1316;138855;-64
2021/11/11 04:19:32;;;;;;;42.10;25.70;;;;;;;3.97;77.01;100902.23;103610;1316;96599;-64
2021/11/11 04:22:20;;;;;;;42.90;26.90;;;;;;;3.95;77.05;100901.19;103364;1317;95059;-63
2021/11/11 04:25:10;;;;;;;45.10;26.70;;;;;;;3.93;76.94;100897.55;103625;1319;137470;-63
2021/11/11 04:28:03;;;;;;;48.20;26.80;;;;;;;3.93;77.03;100901.67;104532;1313;108206;-64
2021/11/11 04:30:54;;;;;;;42.60;25.40;;;;;;;3.89;77.18;100905.27;102582;1322;138355;-64
2021/11/11 04:33:46;;;;;;;39.70;24.00;;;;;;;3.90;76.97;100895.13;103255;1313;96612;-64
2021/11/11 05:01:16;;;;;;;42.30;26.30;;;;;;;3.49;77.14;100858.09;103214;1316;138657;-63
2021/11/11 05:04:04;;;;;;;42.20;26.00;;;;;;;3.50;77.20;100858.27;103612;1314;95902;-63
2021/11/11 05:06:52;;;;;;;40.20;25.10;;;;;;;3.54;77.47;100857.42;103568;1315;137705;-63
2021/11/11 05:09:38;;;;;;;41.10;25.20;;;;;;;3.60;77.50;100862.45;103627;1314;111096;-63
2021/11/11 05:12:26;;;;;;;;;;;;;;;3.65;77.33;100866.96;103669;1312;137497;-63
2021/11/11 05:15:14;;;;;;;42.50;26.20;;;;;;;3.68;77.48;100869.20;103379;1316;107813;-63
2021/11/11 05:18:01;;;;;;;44.10;26.60;;;;;;;3.69;77.24;100868.02;103468;1315;139669;-64
2021/11/11 05:20:50;;;;;;;39.90;25.30;;;;;;;3.70;77.23;100867.84;103667;1316;94524;-64
2021/11/11 05:23:37;;;;;;;43.00;25.70;;;;;;;3.69;77.06;100865.61;103658;1316;139545;-64
2021/11/11 05:26:24;;;;;;;;;;;;;;;3.72;77.08;100857.70;103773;1313;108835;-63
2021/11/11 05:29:13;;;;;;;40.70;25.20;;;;;;;3.72;77.12;100854.43;103586;1314;126588;-63
2021/11/11 05:32:00;;;;;;;39.10;25.20;;;;;;;3.69;76.87;100855.80;103690;1315;95823;-63
2021/11/11 05:34:48;;;;;;;42.40;25.10;;;;;;;3.69;77.07;100854.60;102630;1316;138901;-62
2021/11/11 05:37:35;;;;;;;;;;;;;;;3.64;76.77;100857.67;102943;1316;111211;-62
2021/11/11 05:40:22;;;;;;;43.70;26.20;;;;;;;3.61;77.04;100862.65;103565;1313;108874;-64
2021/11/11 05:43:09;;;;;;;44.70;26.30;;;;;;;3.61;77.10;100870.21;104005;1314;138496;-64
2021/11/11 05:45:57;;;;;;;;;;;;;;;3.60;77.15;100876.57;103591;1319;96568;-64
2021/11/11 05:48:47;;;;;;;45.80;26.60;;;;;;;3.57;77.13;100872.40;103457;1313;124239;-64
2021/11/11 05:51:35;;;;;;;44.50;26.70;;;;;;;3.56;77.13;100873.26;103335;1313;111007;-64
2021/11/11 05:54:22;;;;;;;43.50;25.80;;;;;;;3.52;77.05;100875.30;103818;1316;139362;-64
2021/11/11 05:57:09;;;;;;;47.80;25.70;;;;;;;3.50;77.11;100871.84;104267;1313;107700;-64
2021/11/11 05:59:56;;;;;;;42.90;26.20;;;;;;;3.47;77.01;100876.30;104465;1313;138260;-64
2021/11/11 06:02:43;;;;;;;43.60;25.70;;;;;;;3.51;77.22;100882.17;103853;1313;96477;-64
2021/11/11 06:05:36;;;;;;;42.70;25.60;;;;;;;3.63;77.24;100878.98;104503;1313;138118;-64
2021/11/11 06:08:25;;;;;;;38.50;24.40;;;;;;;3.73;77.36;100875.25;104628;1315;109038;-64
2021/11/11 06:11:12;;;;;;;42.40;26.30;;;;;;;3.79;76.93;100875.98;103904;1317;137895;-64
2021/11/11 06:14:00;;;;;;;44.60;25.70;;;;;;;3.73;76.71;100879.02;103348;1314;96477;-64
2021/11/11 06:16:47;;;;;;;44.50;27.40;;;;;;;3.68;76.61;100880.05;103568;1322;96320;-64
2021/11/11 06:19:37;;;;;;;39.80;25.40;;;;;;;3.63;76.53;100875.38;104697;1314;112201;-65
2021/11/11 06:22:25;;;;;;;46.00;26.90;;;;;;;3.62;76.76;100875.21;104579;1313;109117;-64
2021/11/11 06:25:12;;;;;;;42.50;26.70;;;;;;;3.67;76.77;100873.67;104387;1316;138421;-64
2021/11/11 06:28:02;;;;;;;41.80;25.10;;;;;;;3.71;76.74;100875.41;104555;1316;95311;-65
2021/11/11 06:30:48;;;;;;;37.90;24.30;;;;;;;3.77;76.58;100877.34;103304;1313;138174;-64
2021/11/11 06:33:39;;;;;;;39.90;24.30;;;;;;;3.86;76.30;100882.89;104410;1313;109511;-64
2021/11/11 06:36:26;;;;;;;39.20;24.70;;;;;;;4.01;76.35;100888.14;104337;1317;137890;-64
2021/11/11 06:39:17;;;;;;;39.30;25.80;;;;;;;4.18;76.38;100891.14;103485;1316;108867;-64
2021/11/11 06:42:04;;;;;;;40.80;25.60;;;;;;;4.36;76.16;100885.17;103800;1314;137543;-64
2021/11/11 06:44:51;;;;;;;45.90;26.70;;;;;;;4.45;75.47;100884.86;104630;1313;94471;-65
2021/11/11 06:47:39;;;;;;;43.00;26.60;;;;;;;4.44;75.11;100882.79;103704;1316;137712;-65
2021/11/11 06:50:26;;;;;;;41.90;26.40;;;;;;;4.46;75.31;100886.76;103561;1314;108917;-64
2021/11/11 06:53:16;;;;;;;42.70;25.80;;;;;;;4.43;74.88;100886.23;104531;1317;107874;-64
2021/11/11 06:56:03;;;;;;;40.20;25.40;;;;;;;4.41;74.73;100889.67;104664;1318;95641;-64
2021/11/11 06:58:49;;;;;;;37.90;23.60;;;;;;;4.47;74.74;100892.28;104474;1313;94907;-64
2021/11/11 07:01:37;;;;;;;37.30;23.60;;;;;;;4.70;74.92;100888.71;104476;1315;138352;-64
2021/11/11 07:04:25;;;;;;;33.90;23.10;;;;;;;4.92;74.34;100892.20;104628;1315;109039;-64
2021/11/11 07:07:12;;;;;;;35.30;23.90;;;;;;;5.12;74.23;100890.66;103843;1313;138620;-63
2021/11/11 07:09:59;;;;;;;35.60;23.10;;;;;;;5.39;73.90;100891.35;104692;1313;95988;-64
2021/11/11 07:12:46;;;;;;;37.50;25.30;;;;;;;5.75;73.66;100893.71;104394;1314;137494;-63
2021/11/11 07:15:34;;;;;;;37.70;24.50;;;;;;;6.17;73.45;100889.30;103473;1314;111312;-64
2021/11/11 07:18:21;;;;;;;38.80;24.60;;;;;;;6.52;72.60;100887.05;103599;1313;138580;-64
2021/11/11 07:21:07;;;;;;;38.10;24.90;;;;;;;6.75;71.68;100881.92;104641;1314;109713;-64
2021/11/11 07:23:54;;;;;;;37.60;25.20;;;;;;;6.81;70.52;100881.36;104345;1318;137838;-64
2021/11/11 07:26:41;;;;;;;37.80;25.10;;;;;;;6.99;70.57;100882.45;103760;1315;96592;-64
2021/11/11 07:29:27;;;;;;;39.40;25.30;;;;;;;7.18;70.37;100882.13;103354;1316;111346;-64
2021/11/11 07:32:14;;;;;;;36.40;24.70;;;;;;;7.40;69.71;100874.33;103273;1314;137555;-63
2021/11/11 07:35:02;;;;;;;37.90;25.10;;;;;;;7.56;69.12;100872.27;103332;1314;108815;-64
2021/11/11 07:37:50;;;;;;;;;;;;;;;7.69;68.53;100862.95;102282;1313;138005;-64
2021/11/11 07:40:38;;;;;;;;;;;;;;;7.78;67.96;100862.02;103168;1316;95557;-64
2021/11/11 07:43:25;;;;;;;36.50;22.80;;;;;;;7.79;67.63;100857.83;103639;1316;124123;-63
2021/11/11 07:46:12;;;;;;;35.40;24.40;;;;;;;8.06;67.97;100861.33;102726;1316;109201;-64
2021/11/11 07:49:00;;;;;;;33.30;24.50;;;;;;;8.36;67.34;100854.73;103479;1312;137695;-64
2021/11/11 07:51:46;;;;;;;35.30;24.30;;;;;;;8.61;66.20;100852.84;103523;1316;96582;-64
2021/11/11 07:54:33;;;;;;;33.30;24.40;;;;;;;8.81;66.14;100851.33;103560;1315;137947;-64
2021/11/11 07:57:29;;;;;;;33.90;24.80;;;;;;;9.18;66.11;100844.48;103237;1314;110175;-64
2021/11/11 08:00:16;;;;;;;34.50;23.90;;;;;;;9.46;65.01;100849.89;102313;1312;138998;-63
2021/11/11 08:03:04;;;;;;;33.20;25.30;;;;;;;9.68;64.65;100848.11;102679;1316;108803;-65
2021/11/11 08:05:51;;;;;;;35.40;26.60;;;;;;;10.01;64.47;100848.51;102421;1327;137932;-65
2021/11/11 08:08:39;;;;;;;32.40;24.50;;;;;;;10.34;64.08;100848.19;103462;1312;94714;-64
2021/11/11 08:11:26;;;;;;;31.50;23.80;;;;;;;10.68;63.01;100851.26;103625;1315;110328;-65
2021/11/11 08:14:13;;;;;;;33.00;24.00;;;;;;;10.94;62.74;100849.27;103459;1313;137927;-65
2021/11/11 08:17:00;;;;;;;33.90;26.30;;;;;;;11.26;62.38;100853.34;103467;1313;207530;-63
2021/11/11 08:19:47;;;;;;;33.90;26.60;;;;;;;11.53;61.77;100845.68;102713;1312;138519;-64
2021/11/11 08:22:35;;;;;;;33.00;24.80;;;;;;;11.93;61.43;100839.90;103686;1315;94555;-64
2021/11/11 08:25:22;;;;;;;31.30;24.60;;;;;;;12.28;60.76;100841.17;103099;1315;137875;-64
2021/11/11 08:28:11;;;;;;;30.00;22.20;;;;;;;12.67;60.11;100840.30;103600;1315;109356;-64
2021/11/11 08:30:58;;;;;;;27.90;22.20;;;;;;;13.06;59.26;100837.33;102116;1316;139004;-63
2021/11/11 08:33:45;;;;;;;;;;;;;;;13.38;58.43;100835.73;103616;1317;95907;-64
2021/11/11 08:36:32;;;;;;;26.90;21.50;;;;;;;13.52;57.05;100832.99;103526;1312;124553;-65
2021/11/11 08:39:19;;;;;;;28.10;22.20;;;;;;;13.64;56.48;100827.64;103612;1312;111273;-65
2021/11/11 08:42:09;;;;;;;26.60;21.10;;;;;;;13.92;55.97;100823.16;103587;1311;138609;-65
2021/11/11 08:44:56;;;;;;;29.00;21.80;;;;;;;14.42;55.66;100809.71;103373;1315;108857;-64
2021/11/11 08:47:44;;;;;;;28.10;22.60;;;;;;;14.72;54.35;100808.91;103168;1315;96666;-63
2021/11/11 08:50:35;;;;;;;27.50;21.30;;;;;;;14.85;53.83;100810.46;103065;1315;137781;-64
2021/11/11 08:53:22;;;;;;;26.30;21.20;;;;;;;15.26;53.74;100807.55;103142;1317;111240;-64
2021/11/11 08:56:09;;;;;;;26.00;21.20;;;;;;;15.51;53.01;100810.64;103186;1316;138004;-63
2021/11/11 08:58:59;;;;;;;29.10;23.30;;;;;;;15.82;52.45;100813.70;103172;1317;109410;-64
2021/11/11 09:01:47;;;;;;;26.60;22.10;;;;;;;16.10;51.88;100810.34;104436;1315;137818;-65
2021/11/11 09:04:34;;;;;;;27.50;21.70;;;;;;;16.33;51.17;100807.30;103794;1318;96524;-65
2021/11/11 09:07:22;;;;;;;27.00;21.30;;;;;;;16.40;50.42;100798.40;103580;1315;138531;-65
2021/11/11 09:10:12;;;;;;;28.30;21.60;;;;;;;16.37;49.75;100792.55;103298;1316;108828;-64
2021/11/11 09:12:59;;;;;;;25.80;21.30;;;;;;;16.41;49.95;100787.27;103437;1313;138360;-65
2021/11/11 09:15:46;;;;;;;29.60;23.10;;;;;;;16.54;49.48;100785.80;103202;1315;96484;-65
2021/11/11 09:18:34;;;;;;;27.80;22.30;;;;;;;16.70;49.71;100788.89;103109;1321;138965;-65
2021/11/11 09:21:21;;;;;;;29.60;22.90;;;;;;;16.88;49.06;100790.99;103334;1316;111199;-65
2021/11/11 09:24:10;;;;;;;27.30;21.90;;;;;;;16.82;48.50;100792.85;103322;1316;109110;-65
2021/11/11 09:26:57;;;;;;;28.40;22.30;;;;;;;16.62;48.36;100791.20;103220;1316;108962;-65
2021/11/11 09:29:45;;;;;;;29.20;24.10;;;;;;;16.63;48.83;100793.21;103172;1316;96544;-65
2021/11/11 09:32:32;;;;;;;30.90;22.70;;;;;;;16.78;48.65;100793.58;103194;1316;137861;-65
2021/11/11 09:35:21;;;;;;;27.70;22.30;;;;;;;16.84;48.57;100797.31;103315;1316;111248;-65
2021/11/11 09:38:07;;;;;;;28.30;22.60;;;;;;;17.02;48.45;100794.66;103485;1314;138118;-64
2021/11/11 09:40:55;;;;;;;30.20;23.30;;;;;;;17.16;48.22;100797.86;103183;1315;108791;-64
2021/11/11 09:43:53;;;;;;;32.90;23.90;;;;;;;17.22;47.89;100798.41;103314;1316;138272;-64
2021/11/11 09:46:40;;;;;;;29.40;21.70;;;;;;;17.28;47.63;100788.23;104657;1316;94957;-65
2021/11/11 09:49:27;;;;;;;25.80;21.60;;;;;;;17.34;47.66;100780.19;103865;1316;138128;-64
2021/11/11 09:52:16;;;;;;;26.50;22.80;;;;;;;17.38;47.27;100775.92;103318;1319;109047;-65
2021/11/11 10:01:19;;;;;;;27.10;21.60;;;;;;;17.20;47.18;100776.36;104482;1316;137867;-65
2021/11/11 10:04:06;;;;;;;27.40;22.70;;;;;;;17.36;46.88;100777.83;104478;1315;109267;-65
2021/11/11 10:06:53;;;;;;;28.60;22.50;;;;;;;17.46;46.68;100780.83;104626;1313;141041;-65
2021/11/11 10:09:45;;;;;;;27.90;23.50;;;;;;;17.57;46.65;100774.95;104326;1317;108692;-65
2021/11/11 10:12:32;;;;;;;29.30;23.10;;;;;;;17.55;46.01;100766.78;103445;1314;96517;-66
2021/11/11 10:15:19;;;;;;;;;;;;;;;17.53;46.36;100768.81;104802;1313;94541;-64
2021/11/11 10:18:05;;;;;;;29.70;23.90;;;;;;;17.46;46.18;100773.42;104707;1313;111295;-65
2021/11/11 10:20:54;;;;;;;28.60;23.00;;;;;;;17.44;46.38;100778.13;104661;1312;138345;-64
2021/11/11 10:23:41;;;;;;;28.40;23.00;;;;;;;17.47;46.05;100782.34;104444;1313;108886;-64
2021/11/11 10:26:39;;;;;;;28.70;24.20;;;;;;;17.37;45.86;100778.48;104020;1312;138224;-64
2021/11/11 10:29:46;;;;;;;31.30;24.40;;;;;;;17.27;46.12;100775.33;103477;1313;96803;-64
2021/11/11 10:32:58;;;;;;;32.10;23.80;;;;;;;17.12;46.00;100772.89;103284;1312;137837;-65
2021/11/11 10:35:48;;;;;;;29.70;23.70;;;;;;;16.96;46.42;100781.98;103420;1313;108835;-64
2021/11/11 10:38:35;;;;;;;31.10;24.50;;;;;;;16.86;46.50;100779.48;103343;1313;138612;-65
2021/11/11 10:41:31;;;;;;;29.00;22.30;;;;;;;16.60;46.45;100778.98;103373;1313;96522;-64
2021/11/11 10:44:28;;;;;;;30.90;23.10;;;;;;;16.44;46.75;100767.33;103014;1312;138013;-63
2021/11/11 10:47:22;;;;;;;33.00;25.20;;;;;;;16.28;47.06;100758.58;102802;1313;110139;-63
2021/11/11 10:50:14;;;;;;;29.50;23.40;;;;;;;16.12;47.20;100751.61;102309;1312;139608;-64
2021/11/11 10:53:04;;;;;;;30.80;24.50;;;;;;;16.03;47.34;100754.70;102280;1315;109025;-64
2021/11/11 10:55:58;;;;;;;30.60;23.90;;;;;;;15.90;47.30;100754.91;102284;1312;138043;-63
2021/11/11 10:58:45;;;;;;;29.30;24.60;;;;;;;15.66;47.25;100752.88;102740;1312;96520;-65
2021/11/11 11:01:33;;;;;;;31.40;24.40;;;;;;;15.44;47.66;100754.70;102322;1313;138031;-65
2021/11/11 11:04:27;;;;;;;30.80;24.20;;;;;;;15.35;48.11;100758.27;102438;1312;108945;-64
2021/11/11 11:07:14;;;;;;;32.40;25.40;;;;;;;15.40;48.28;100759.41;102327;1313;139382;-64
2021/11/11 11:10:07;;;;;;;33.00;25.20;;;;;;;15.39;48.25;100760.70;102403;1313;96519;-64
2021/11/11 11:12:56;;;;;;;30.80;25.30;;;;;;;15.33;48.36;100759.21;103774;1312;94781;-64
2021/11/11 11:15:53;;;;;;;34.30;25.90;;;;;;;15.22;48.03;100759.73;103269;1315;138861;-64
2021/11/11 11:18:44;;;;;;;33.20;25.60;;;;;;;14.91;48.30;100754.34;103634;1315;107993;-64
2021/11/11 11:21:36;;;;;;;35.70;25.60;;;;;;;14.76;48.80;100754.48;103658;1313;138359;-64
2021/11/11 11:24:30;;;;;;;37.60;25.90;;;;;;;14.53;48.86;100752.77;103289;1312;94940;-65
2021/11/11 11:27:30;;;;;;;35.30;26.80;;;;;;;14.34;49.23;100754.20;103333;1313;138538;-64
2021/11/11 11:30:18;;;;;;;33.10;25.20;;;;;;;14.28;49.48;100750.25;102717;1316;111424;-64
2021/11/11 11:33:18;;;;;;;32.90;25.60;;;;;;;14.20;49.54;100749.52;103493;1316;138645;-64
2021/11/11 11:36:05;;;;;;;32.50;26.40;;;;;;;14.09;50.03;100750.84;103087;1317;108954;-64
2021/11/11 11:38:54;;;;;;;37.10;26.40;;;;;;;14.02;50.02;100754.07;103702;1313;137854;-64
2021/11/11 11:41:43;;;;;;;35.00;26.30;;;;;;;13.99;50.43;100752.95;103804;1312;96096;-64
2021/11/11 11:44:44;;;;;;;33.50;26.30;;;;;;;14.01;50.42;100746.96;103304;1312;139073;-65
2021/11/11 11:48:06;;;;;;;38.70;28.00;;;;;;;13.88;50.39;100742.00;103806;1313;108865;-64
2021/11/11 11:50:54;;;;;;;35.10;25.70;;;;;;;13.80;50.68;100732.50;103751;1311;138234;-64
2021/11/11 11:54:03;;;;;;;36.20;26.10;;;;;;;13.78;50.90;100735.39;103584;1313;96548;-64
2021/11/11 11:56:55;;;;;;;34.30;27.00;;;;;;;13.80;51.17;100723.42;103304;1309;138654;-63
2021/11/11 11:59:47;;;;;;;36.40;27.40;;;;;;;13.83;50.87;100718.80;104739;1312;111697;-64
2021/11/11 12:09:30;;;;;;;35.10;26.90;;;;;;;13.72;51.41;100709.08;104381;1313;138592;-64
2021/11/11 12:15:23;;;;;;;38.90;27.60;;;;;;;13.67;51.50;100708.56;104667;1313;138624;-64
2021/11/11 12:38:31;;;;;;;39.50;27.90;;;;;;;13.16;51.81;100701.67;104768;1313;109091;-64
2021/11/11 12:41:07;;;;;;;38.70;28.00;;;;;;;12.94;52.39;100703.67;104200;1313;94636;-65
2021/11/11 12:44:12;;;;;;;38.40;29.00;;;;;;;12.89;52.59;100710.10;104608;1316;94560;-65
2021/11/11 12:46:59;;;;;;;36.60;27.70;;;;;;;12.81;52.74;100709.32;104135;1314;111617;-63
2021/11/11 12:49:47;;;;;;;39.90;29.10;;;;;;;12.74;52.75;100713.42;103534;1314;108794;-64
2021/11/11 12:52:34;;;;;;;;;;;;;;;12.58;52.83;100716.73;104384;1313;138076;-63
2021/11/11 12:55:20;;;;;;;40.70;29.90;;;;;;;12.42;53.14;100716.38;104747;1313;96249;-64
2021/11/11 12:58:09;;;;;;;46.20;31.10;;;;;;;12.32;53.43;100718.80;103533;1313;137860;-64
2021/11/11 13:01:21;;;;;;;42.10;30.70;;;;;;;12.20;53.64;100723.70;104266;1313;111101;-64
2021/11/11 13:04:13;;;;;;;38.20;30.00;;;;;;;12.07;53.93;100723.23;104639;1313;138385;-64
2021/11/11 13:07:01;;;;;;;43.20;30.20;;;;;;;12.00;54.20;100728.67;104743;1313;109327;-63
2021/11/11 13:10:03;;;;;;;42.50;29.50;;;;;;;11.93;54.46;100731.86;104633;1314;138112;-64
2021/11/11 13:13:12;;;;;;;42.50;30.70;;;;;;;11.85;54.59;100726.01;104660;1314;94921;-64
2021/11/11 13:16:13;;;;;;;;;;;;;;;11.73;54.78;100718.15;102304;1313;137946;-65
2021/11/11 13:19:06;;;;;;;43.30;31.90;;;;;;;11.65;55.23;100716.08;102398;1312;108138;-65
2021/11/11 13:22:04;;;;;;;40.20;29.40;;;;;;;11.63;55.37;100717.91;102188;1314;138433;-65
2021/11/11 14:00:24;;;;;;;44.50;31.50;;;;;;;10.33;58.09;100686.40;102233;1319;96661;-64
2021/11/11 15:16:17;;;;;;;55.00;37.10;;;;;;;7.93;65.27;100677.95;103522;1313;139724;-64
2021/11/11 15:19:27;;;;;;;50.90;32.90;;;;;;;7.86;65.33;100685.82;103342;1313;95846;-66
2021/11/11 16:27:38;;;;;;;55.60;37.00;;;;;;;7.40;67.51;100699.08;104764;1314;106012;-65
2021/11/11 16:30:28;;;;;;;58.00;37.90;;;;;;;7.39;67.53;100695.81;104216;1313;137731;-65
2021/11/11 16:33:16;;;;;;;58.00;37.40;;;;;;;7.37;67.71;100693.92;104750;1312;95282;-64
2021/11/11 16:36:21;;;;;;;57.50;37.20;;;;;;;7.36;67.76;100697.05;104662;1313;137499;-64
2021/11/11 16:39:10;;;;;;;63.10;40.20;;;;;;;7.33;67.90;100700.20;104744;1317;112769;-65